FYGA4: White River At Fayetteville, AR

                                SHEF ID:       FYGA4     White River near Fayetteville, A
STATION TYPE: Stream Gauge

PRECIP STAGE RIV-FLOW WTR-TEMP DIS-OXY PH CONDUCT BAT-LOAD
in ft cfs F mg/l su umho/cm volt
Ccp-Rev Ccp-Rev Ccp-Rev Ccp-Rev Ccp-Rev Ccp-Rev Ccp-Rev Ccp-Rev
(America/Chicago)
08/03 00:00 0.00 0.93 0 85.17 4.76 7.62 274 12.73
08/03 01:00 0.00 0.93 0 84.20 4.26 7.60 275 12.73
08/03 02:00 0.00 0.92 0 83.28 3.89 7.55 277 12.73
08/03 03:00 0.00 0.92 0 82.53 4.21 7.55 278 12.73
08/03 04:00 0.00 0.92 0 82.13 3.35 7.51 279 12.65
08/03 05:00 0.05 0.92 0 81.48 3.80 7.54 279 12.65
08/03 06:00 0.04 0.92 0 80.89 3.32 7.54 280 12.65
08/03 07:00 0.00 0.92 0 80.49 3.73 7.53 281 12.57
08/03 08:00 0.21 0.91 0 79.92 3.61 7.49 281 12.65
08/03 09:00 0.10 0.91 0 79.68 3.58 7.51 281 13.44
08/03 10:00 0.26 0.91 0 79.54 3.84 7.52 281 13.53
08/03 11:00 0.01 0.91 0 81.82 5.09 7.65 282 13.44
08/03 12:00 0.01 0.91 0 85.75 8.39 7.99 279 13.44
08/03 13:00 0.00 0.91 0 88.50 9.22 8.13 278 13.44
08/03 14:00 0.02 0.91 0 91.74 9.89 8.26 275 13.21
08/03 15:00 0.00 0.91 0 93.31 10.19 8.37 274 13.29
08/03 16:00 0.01 0.90 0 95.47 11.02 8.47 273 13.13
08/03 17:00 0.00 0.91 0 95.77 10.75 8.43 272 13.13
08/03 18:00 0.01 0.91 0 94.95 11.13 8.46 269 13.05
08/03 19:00 0.03 0.91 0 93.06 10.95 8.46 269 12.89
08/03 20:00 0.00 0.91 0 90.91 10.24 8.42 270 12.89
08/03 21:00 0.00 0.92 0 89.22 7.72 8.05 276 12.81
08/03 22:00 0.00 0.91 0 87.98 6.11 7.77 281 12.81
08/03 23:00 ---- ---- ---- ---- ---- ---- ---- ----
Data processed at Sun 04Aug2024 04:10 GMT

Parsing this webpage?

Checkout our new Data API! CWMSDataAPI (CDA)

Timeseries IDs (TSIDs)

TSIDs used from left to right in the data table
FAYE.Precip-Inc.Total.1Hour.1Hour.Ccp-Rev
FAYE.Stage.Inst.1Hour.0.Ccp-Rev
FAYE.Flow.Inst.1Hour.0.Ccp-Rev
FAYE.Temp-Water.Inst.1Hour.0.Ccp-Rev
FAYE.Conc-DO.Inst.1Hour.0.Ccp-Rev
FAYE.pH.Inst.1Hour.0.Ccp-Rev
FAYE.Cond-Water.Inst.1Hour.0.Ccp-Rev
FAYE.Volt-Battery Load.Inst.1Hour.0.Ccp-Rev

                            

All information presented herein is the property of the government of the United States of America and may be revised or deleted at any time without prior notice. Dissemination of this information without the expressed written consent of the Public Affairs Office, Tulsa District U.S. Army Corps of Engineers is strictly prohibited. These data are gathered electronically and, as presented, have NOT undergone any form of quality control. These data are NOT guaranteed to be valid or correct.